createdAt,value
2018-05-29T00:02:44.657Z,22.77
2018-05-29T00:06:17.148Z,23.23
2018-05-29T00:09:49.624Z,24.90
2018-05-29T00:13:22.123Z,24.10
2018-05-29T00:16:54.621Z,23.17
2018-05-29T00:20:27.859Z,25.50
2018-05-29T00:24:00.360Z,24.17
2018-05-29T00:27:32.834Z,23.50
2018-05-29T00:31:05.328Z,24.97
2018-05-29T00:34:37.828Z,27.13
2018-05-29T00:38:10.310Z,25.60
2018-05-29T00:41:42.800Z,26.07
2018-05-29T00:45:16.049Z,23.60
2018-05-29T00:48:48.544Z,26.00
2018-05-29T00:52:21.032Z,27.70
2018-05-29T00:55:53.512Z,27.63
2018-05-29T00:59:26.004Z,26.17
2018-05-29T01:02:58.501Z,26.23
2018-05-29T01:06:31.004Z,24.60
2018-05-29T01:10:04.256Z,25.90
2018-05-29T01:13:36.753Z,26.93
2018-05-29T01:17:09.228Z,26.70
2018-05-29T01:20:41.725Z,28.27
2018-05-29T01:24:14.205Z,28.17
2018-05-29T01:27:46.709Z,28.37
2018-05-29T01:31:19.186Z,30.70
2018-05-29T01:34:51.677Z,32.20
2018-05-29T01:38:24.977Z,28.73
2018-05-29T01:41:58.228Z,28.47
2018-05-29T01:45:30.712Z,29.97
2018-05-29T01:49:03.188Z,29.73
2018-05-29T01:52:35.685Z,31.00
2018-05-29T01:56:08.160Z,28.77
2018-05-29T01:59:40.654Z,29.43
2018-05-29T02:03:13.140Z,29.00
2018-05-29T02:06:45.631Z,29.23
2018-05-29T02:10:18.125Z,30.30
2018-05-29T02:13:51.392Z,30.53
2018-05-29T02:17:23.882Z,28.50
2018-05-29T02:20:56.365Z,28.37
2018-05-29T02:24:28.853Z,28.57
2018-05-29T02:28:01.372Z,31.33
2018-05-29T02:31:33.843Z,29.20
2018-05-29T02:35:07.099Z,31.60
2018-05-29T02:38:39.577Z,27.27
2018-05-29T02:42:12.067Z,30.03
2018-05-29T02:45:44.563Z,26.87
2018-05-29T02:49:17.034Z,30.00
2018-05-29T02:52:49.570Z,31.27
2018-05-29T02:56:22.024Z,30.20
2018-05-29T02:59:55.269Z,31.27
2018-05-29T03:03:28.521Z,32.83
2018-05-29T03:07:01.760Z,32.70
2018-05-29T03:10:34.248Z,31.00
2018-05-29T03:14:06.736Z,31.97
2018-05-29T03:17:39.228Z,29.30
2018-05-29T03:21:11.704Z,30.17
2018-05-29T03:24:44.191Z,33.53
2018-05-29T03:28:16.689Z,30.87
2018-05-29T03:31:49.173Z,31.93
2018-05-29T03:35:21.660Z,30.87
2018-05-29T03:38:54.136Z,34.17
2018-05-29T03:42:26.641Z,31.97
2018-05-29T03:45:59.116Z,39.93
2018-05-29T03:49:31.628Z,41.40
2018-05-29T03:53:04.105Z,38.27
2018-05-29T03:56:37.363Z,38.70
2018-05-29T04:00:09.835Z,37.73
2018-05-29T04:03:42.338Z,37.00
2018-05-29T04:07:15.638Z,37.10
2018-05-29T04:10:48.134Z,38.20
2018-05-29T04:14:20.609Z,38.10
2018-05-29T04:17:53.116Z,33.20
2018-05-29T04:21:26.358Z,35.47
2018-05-29T04:24:58.855Z,36.50
2018-05-29T04:28:31.332Z,36.67
2018-05-29T04:32:03.815Z,35.70
2018-05-29T04:35:36.321Z,35.00
2018-05-29T04:39:08.813Z,36.33
2018-05-29T04:42:42.065Z,37.37
2018-05-29T04:46:14.567Z,34.77
2018-05-29T04:49:47.043Z,31.80
2018-05-29T04:53:19.548Z,34.20
2018-05-29T04:56:52.022Z,34.13
2018-05-29T05:00:24.526Z,30.43
2018-05-29T05:03:57.770Z,32.83
2018-05-29T05:07:30.270Z,34.27
2018-05-29T05:11:02.758Z,33.90
2018-05-29T05:14:35.256Z,33.40
2018-05-29T05:18:07.758Z,36.37
2018-05-29T05:21:40.995Z,35.17
2018-05-29T05:25:13.491Z,31.70
2018-05-29T05:28:45.973Z,30.73
2018-05-29T05:32:18.481Z,31.23
2018-05-29T05:35:50.955Z,29.40
2018-05-29T05:39:23.460Z,31.47
2018-05-29T05:42:56.707Z,32.90
2018-05-29T05:46:29.203Z,34.80
2018-05-29T05:50:01.692Z,28.73
2018-05-29T05:53:34.181Z,32.13
2018-05-29T05:57:06.670Z,31.70
2018-05-29T06:00:39.168Z,32.93
2018-05-29T06:04:12.423Z,30.53
2018-05-29T06:07:44.942Z,30.40
2018-05-29T06:11:17.439Z,32.57
2018-05-29T06:14:50.695Z,28.93
2018-05-29T06:18:23.183Z,31.77
2018-05-29T06:21:55.669Z,29.27
2018-05-29T06:25:28.157Z,30.10
2018-05-29T06:29:00.633Z,28.30
2018-05-29T06:32:33.119Z,29.10
2018-05-29T06:36:05.621Z,28.47
2018-05-29T06:39:38.099Z,30.03
2018-05-29T06:43:10.583Z,28.13
2018-05-29T06:46:43.068Z,32.20
2018-05-29T06:50:16.332Z,27.67
2018-05-29T06:53:48.808Z,28.63
2018-05-29T06:57:21.299Z,28.57
2018-05-29T07:00:53.812Z,27.20
2018-05-29T07:04:26.292Z,27.57
2018-05-29T07:07:58.775Z,28.87
2018-05-29T07:11:31.251Z,26.57
2018-05-29T07:15:03.755Z,25.47
2018-05-29T07:18:37.037Z,28.43
2018-05-29T07:22:09.519Z,26.47
2018-05-29T07:25:42.010Z,26.37
2018-05-29T07:29:14.507Z,27.17
2018-05-29T07:32:47.003Z,26.90
2018-05-29T07:36:19.488Z,24.97
2018-05-29T07:39:51.995Z,30.20
2018-05-29T07:43:24.500Z,27.43
2018-05-29T07:46:56.971Z,24.60
2018-05-29T07:50:29.458Z,28.17
2018-05-29T07:54:01.941Z,27.73
2018-05-29T07:57:34.458Z,25.27
2018-05-29T08:01:07.717Z,26.73
2018-05-29T08:04:40.201Z,28.97
2018-05-29T08:08:12.680Z,28.30
2018-05-29T08:11:45.165Z,29.20
2018-05-29T08:15:17.668Z,28.87
2018-05-29T08:18:50.162Z,25.90
2018-05-29T08:22:23.406Z,28.03
2018-05-29T08:25:55.887Z,27.87
2018-05-29T08:29:28.376Z,26.20
2018-05-29T08:33:00.862Z,28.27
2018-05-29T08:36:33.351Z,30.23
2018-05-29T08:40:05.864Z,29.63
2018-05-29T08:43:39.618Z,26.73
2018-05-29T08:47:12.119Z,23.73
2018-05-29T08:50:44.617Z,25.63
2018-05-29T08:54:17.116Z,27.90
2018-05-29T08:57:49.584Z,23.93
2018-05-29T09:01:22.075Z,24.63
2018-05-29T09:04:54.558Z,23.10
2018-05-29T09:08:27.054Z,23.70
2018-05-29T09:12:00.305Z,22.47
2018-05-29T09:15:32.801Z,22.47
2018-05-29T09:19:05.301Z,21.03
2018-05-29T09:22:37.775Z,22.80
2018-05-29T09:26:10.260Z,20.47
2018-05-29T09:29:42.827Z,20.20
2018-05-29T09:33:16.011Z,21.80
2018-05-29T09:36:48.501Z,19.43
2018-05-29T09:40:20.979Z,22.27
2018-05-29T09:43:53.464Z,20.60
2018-05-29T09:47:25.941Z,20.33
2018-05-29T09:50:58.432Z,19.63
2018-05-29T09:54:30.953Z,18.70
2018-05-29T09:58:03.429Z,20.47
2018-05-29T10:01:35.916Z,20.00
2018-05-29T10:05:08.424Z,19.40
2018-05-29T10:08:40.903Z,20.63
2018-05-29T10:12:13.407Z,18.73
2018-05-29T10:15:45.892Z,16.67
2018-05-29T10:19:18.380Z,18.57
2018-05-29T10:22:50.864Z,17.17
2018-05-29T10:26:23.758Z,17.50
2018-05-29T10:29:56.250Z,17.60
2018-05-29T10:33:28.719Z,18.57
2018-05-29T10:37:01.215Z,20.03
2018-05-29T10:40:33.689Z,20.97
2018-05-29T10:44:06.180Z,19.37
2018-05-29T10:47:39.427Z,22.97
2018-05-29T10:51:11.915Z,20.80
2018-05-29T10:54:44.416Z,20.80
2018-05-29T10:58:16.895Z,22.47
2018-05-29T11:01:49.384Z,22.30
2018-05-29T11:05:21.886Z,21.57
2018-05-29T11:08:54.380Z,23.60
2018-05-29T11:12:26.855Z,21.77
2018-05-29T11:15:59.345Z,23.20
2018-05-29T11:19:31.836Z,22.33
2018-05-29T11:23:04.319Z,21.87
2018-05-29T11:26:36.820Z,20.33
2018-05-29T11:30:10.055Z,18.70
2018-05-29T11:33:42.543Z,18.13
2018-05-29T11:37:15.019Z,19.33
2018-05-29T11:40:47.512Z,18.57
2018-05-29T11:44:19.987Z,15.80
2018-05-29T11:47:52.480Z,17.50
2018-05-29T11:51:24.955Z,14.77
2018-05-29T11:54:57.495Z,15.67
2018-05-29T11:58:29.936Z,16.63
2018-05-29T12:02:02.422Z,18.30
2018-05-29T12:05:34.907Z,16.07
2018-05-29T12:09:07.380Z,16.23
2018-05-29T12:12:39.885Z,15.60
2018-05-29T12:16:12.355Z,14.17
2018-05-29T12:19:44.851Z,14.70
2018-05-29T12:23:17.333Z,11.70
2018-05-29T12:26:49.833Z,12.97
2018-05-29T12:30:23.100Z,13.17
2018-05-29T12:33:55.589Z,14.27
2018-05-29T12:37:28.071Z,14.20
2018-05-29T12:41:00.563Z,16.03
2018-05-29T12:44:33.049Z,15.23
2018-05-29T12:48:05.555Z,16.30
2018-05-29T12:51:38.032Z,16.07
2018-05-29T12:55:11.293Z,16.10
2018-05-29T12:58:43.779Z,15.37
2018-05-29T13:02:16.259Z,15.77
2018-05-29T13:05:48.763Z,15.20
2018-05-29T13:09:22.011Z,14.60
2018-05-29T13:12:54.508Z,14.17
2018-05-29T13:16:26.996Z,15.47
2018-05-29T13:19:59.486Z,14.70
2018-05-29T13:23:31.966Z,16.17
2018-05-29T13:27:04.524Z,14.70
2018-05-29T13:30:37.726Z,14.90
2018-05-29T13:34:10.209Z,14.50
2018-05-29T13:37:42.685Z,15.93
2018-05-29T13:41:15.185Z,15.47
2018-05-29T13:44:47.679Z,15.37
2018-05-29T13:48:20.176Z,15.00
2018-05-29T13:51:52.660Z,16.53
2018-05-29T13:55:25.140Z,14.83
2018-05-29T13:58:57.618Z,15.47
2018-05-29T14:02:30.103Z,16.03
2018-05-29T14:06:02.592Z,16.20
2018-05-29T14:09:35.833Z,13.70
2018-05-29T14:13:08.344Z,16.67
2018-05-29T14:16:40.812Z,17.43
2018-05-29T14:20:13.305Z,17.07
2018-05-29T14:23:45.802Z,15.97
2018-05-29T14:27:18.282Z,17.00
2018-05-29T14:30:50.767Z,18.03
2018-05-29T14:34:23.274Z,18.90
2018-05-29T14:37:56.510Z,18.00
2018-05-29T14:41:29.004Z,17.67
2018-05-29T14:45:01.502Z,16.80
2018-05-29T14:48:33.983Z,18.50
2018-05-29T14:52:06.470Z,16.90
2018-05-29T14:55:38.977Z,15.17
2018-05-29T14:59:12.232Z,15.10
2018-05-29T15:02:44.715Z,15.40
2018-05-29T15:06:17.221Z,14.97
2018-05-29T15:09:49.707Z,15.40
2018-05-29T15:13:22.216Z,15.83
2018-05-29T15:16:55.463Z,15.80
2018-05-29T15:20:27.954Z,11.73
2018-05-29T15:24:00.432Z,13.27
2018-05-29T15:27:32.912Z,13.80
2018-05-29T15:31:05.399Z,13.50
2018-05-29T15:34:37.884Z,13.33
2018-05-29T15:38:10.373Z,13.77
2018-05-29T15:41:42.857Z,11.63
2018-05-29T15:45:15.347Z,11.50
2018-05-29T15:48:47.825Z,10.57
2018-05-29T15:52:20.333Z,12.20
2018-05-29T15:55:53.577Z,12.27
2018-05-29T15:59:26.080Z,12.97
2018-05-29T16:02:58.565Z,11.80
2018-05-29T16:06:31.067Z,13.63
2018-05-29T16:10:03.538Z,10.70
2018-05-29T16:13:36.032Z,11.20
2018-05-29T16:17:09.272Z,11.37
2018-05-29T16:20:41.764Z,11.80
2018-05-29T16:24:14.246Z,12.60
2018-05-29T16:27:46.737Z,10.57
2018-05-29T16:31:19.212Z,13.13
2018-05-29T16:38:32.510Z,17.03
2018-05-29T16:42:04.956Z,17.20
2018-05-29T16:45:37.455Z,18.73
2018-05-29T16:49:09.966Z,17.47
2018-05-29T16:52:42.437Z,17.97
2018-05-29T16:56:14.919Z,20.30
2018-05-29T16:59:47.568Z,16.07
2018-05-29T17:03:20.040Z,17.13
2018-05-29T17:06:52.520Z,19.10
2018-05-29T17:10:24.991Z,19.70
2018-05-29T17:13:57.472Z,19.47
2018-05-29T17:17:29.965Z,19.70
2018-05-29T17:21:02.428Z,22.17
2018-05-29T17:24:34.935Z,21.27
2018-05-29T17:28:07.414Z,21.97
2018-05-29T17:31:39.877Z,22.20
2018-05-29T17:35:12.357Z,24.10
2018-05-29T17:38:44.873Z,25.13
2018-05-29T17:42:17.360Z,23.83
2018-05-29T17:45:49.911Z,24.53
2018-05-29T17:49:22.391Z,25.37
2018-05-29T17:52:54.859Z,25.80
2018-05-29T17:56:28.111Z,25.00
2018-05-29T18:00:00.603Z,26.37
2018-05-29T18:03:33.081Z,24.60
2018-05-29T18:07:05.557Z,23.57
2018-05-29T18:10:38.032Z,23.27
2018-05-29T18:14:10.507Z,20.90
2018-05-29T18:17:42.979Z,21.30
2018-05-29T18:21:15.460Z,22.07
2018-05-29T18:24:47.948Z,17.67
2018-05-29T18:28:20.424Z,17.80
2018-05-29T18:31:52.920Z,18.13
2018-05-29T18:35:25.396Z,17.57
2018-05-29T18:38:57.877Z,16.23
2018-05-29T18:42:30.363Z,17.43
2018-05-29T18:46:02.849Z,17.00
2018-05-29T18:49:35.345Z,18.07
2018-05-29T18:53:08.043Z,16.57
2018-05-29T18:56:40.875Z,16.87
2018-05-29T19:00:13.461Z,16.50
2018-05-29T19:03:46.674Z,16.17
2018-05-29T19:07:19.222Z,17.70
2018-05-29T19:10:51.773Z,18.17
2018-05-29T19:14:24.353Z,21.17
2018-05-29T19:17:56.941Z,19.90
2018-05-29T19:21:29.407Z,16.67
2018-05-29T19:25:02.164Z,18.27
2018-05-29T19:28:34.672Z,18.43
2018-05-29T19:32:08.100Z,18.63
2018-05-29T19:35:41.371Z,20.23
2018-05-29T19:39:13.856Z,26.83
2018-05-29T19:42:46.370Z,28.53
2018-05-29T19:46:18.849Z,26.93
2018-05-29T19:49:51.349Z,23.90
2018-05-29T19:53:24.588Z,26.33
2018-05-29T19:56:57.075Z,24.13
2018-05-29T20:00:29.564Z,25.23
2018-05-29T20:04:02.061Z,27.50
2018-05-29T20:07:34.557Z,24.00
2018-05-29T20:11:07.041Z,24.90
2018-05-29T20:14:39.541Z,24.20
2018-05-29T20:18:12.775Z,22.10
2018-05-29T20:21:45.264Z,23.97
2018-05-29T20:25:17.742Z,26.60
2018-05-29T20:28:50.232Z,24.70
2018-05-29T20:32:24.380Z,24.80
2018-05-29T20:35:58.168Z,24.77
2018-05-29T20:39:30.654Z,21.60
2018-05-29T20:43:04.506Z,23.17
2018-05-29T20:46:37.215Z,25.50
2018-05-29T20:50:10.581Z,23.90
2018-05-29T20:53:43.113Z,23.80
2018-05-29T20:57:15.632Z,21.00
2018-05-29T21:00:48.128Z,23.17
2018-05-29T21:04:20.725Z,23.23
2018-05-29T21:07:53.257Z,21.50
2018-05-29T21:11:26.376Z,21.80
2018-05-29T21:14:58.876Z,22.07
2018-05-29T21:18:31.715Z,23.10
2018-05-29T21:22:04.217Z,20.20
2018-05-29T21:25:36.697Z,23.50
2018-05-29T21:29:09.187Z,23.23
2018-05-29T21:32:41.689Z,22.80
2018-05-29T21:36:14.281Z,25.97
2018-05-29T21:39:46.804Z,23.10
2018-05-29T21:43:19.292Z,25.77
2018-05-29T21:46:51.859Z,26.60
2018-05-29T21:50:25.119Z,27.80
2018-05-29T21:53:58.673Z,24.63
2018-05-29T21:57:31.943Z,25.27
2018-05-29T22:01:05.212Z,26.67
2018-05-29T22:04:37.759Z,26.93
2018-05-29T22:08:11.371Z,25.37
2018-05-29T22:11:50.885Z,22.07
2018-05-29T22:15:23.397Z,23.77
2018-05-29T22:18:55.882Z,20.10
2018-05-29T22:22:29.049Z,20.73
2018-05-29T22:26:01.599Z,22.23
2018-05-29T22:29:34.124Z,22.90
2018-05-29T22:33:07.439Z,21.47
2018-05-29T22:36:39.945Z,23.80
2018-05-29T22:40:12.432Z,23.83
2018-05-29T22:43:45.043Z,20.20
2018-05-29T22:47:17.564Z,24.77
2018-05-29T22:50:50.812Z,25.87
2018-05-29T22:54:23.317Z,26.33
2018-05-29T22:57:55.843Z,27.47
2018-05-29T23:01:28.341Z,22.83
2018-05-29T23:05:00.845Z,22.97
2018-05-29T23:08:33.327Z,23.23
2018-05-29T23:12:05.821Z,25.87
2018-05-29T23:15:38.325Z,27.77
2018-05-29T23:19:10.806Z,23.90
2018-05-29T23:22:43.290Z,25.13
2018-05-29T23:26:16.535Z,23.60
2018-05-29T23:29:49.033Z,22.63
2018-05-29T23:33:21.509Z,25.53
2018-05-29T23:36:53.988Z,22.63
2018-05-29T23:40:26.464Z,23.77
2018-05-29T23:43:58.949Z,23.57
2018-05-29T23:47:32.848Z,25.53
2018-05-29T23:51:05.360Z,20.30
2018-05-29T23:54:37.900Z,22.10
2018-05-29T23:58:10.393Z,22.67
